Time;durP1;ratioP1;P1;durP2;ratioP2;P2;SDS_P1;SDS_P2;PMS_P1;PMS_P2;Temp;Humidity;BMP_temperature;BMP_pressure;BME280_temperature;BME280_humidity;BME280_pressure;Samples;Min_cycle;Max_cycle;Signal;HPM_P1;HPM_P2
2021/05/31 00:02:23;;;;;;;18.77;10.25;;;14.80;64.60;14.00;102398.00;;;;4905445;29;20040;-77
2021/05/31 00:04:49;;;;;;;16.10;9.90;;;14.80;64.90;13.90;102388.00;;;;4921772;28;20050;-77
2021/05/31 00:07:18;;;;;;;16.58;9.90;;;14.70;64.70;13.90;102395.00;;;;4929236;29;20044;-78
2021/05/31 00:09:45;;;;;;;16.73;10.30;;;14.70;64.60;13.80;102393.00;;;;4931257;29;20577;-78
2021/05/31 00:12:17;;;;;;;15.63;10.13;;;14.60;65.10;13.80;102393.00;;;;4908367;29;20031;-77
2021/05/31 00:14:44;;;;;;;16.75;10.07;;;14.60;65.40;13.80;102383.00;;;;4924071;28;20040;-78
2021/05/31 00:17:11;;;;;;;17.50;10.38;;;14.50;64.40;13.70;102376.00;;;;4904025;29;20123;-78
2021/05/31 00:19:37;;;;;;;;;;;14.50;65.50;13.60;102378.00;;;;4907507;29;20051;-77
2021/05/31 00:22:04;;;;;;;17.20;10.63;;;14.50;67.80;13.70;102384.00;;;;4912651;29;19930;-76
2021/05/31 00:24:30;;;;;;;16.67;10.40;;;14.40;65.90;13.60;102386.00;;;;4912388;29;20448;-76
2021/05/31 00:26:56;;;;;;;17.73;11.07;;;14.40;66.00;13.60;102381.00;;;;4919951;29;20035;-77
2021/05/31 00:29:26;;;;;;;19.17;11.45;;;14.40;65.40;13.50;102377.00;;;;4927118;28;20068;-77
2021/05/31 00:31:57;;;;;;;19.48;11.57;;;14.40;66.50;13.50;102362.00;;;;4928985;29;20047;-76
2021/05/31 00:34:24;;;;;;;21.40;11.05;;;14.30;66.50;13.50;102370.00;;;;4921378;29;20040;-76
2021/05/31 00:36:51;;;;;;;17.70;10.77;;;14.30;66.40;13.40;102370.00;;;;4908433;29;20180;-76
2021/05/31 00:39:22;;;;;;;18.27;11.35;;;14.20;68.10;13.40;102371.00;;;;4908349;29;20044;-76
2021/05/31 00:41:51;;;;;;;19.98;11.80;;;14.20;69.00;13.40;102370.00;;;;4923113;28;20127;-77
2021/05/31 00:44:18;;;;;;;21.83;12.23;;;14.20;67.60;13.40;102373.00;;;;4909973;29;20044;-76
2021/05/31 00:46:45;;;;;;;20.63;11.40;;;14.20;67.20;13.30;102375.00;;;;4919817;29;20686;-77
2021/05/31 00:49:16;;;;;;;18.85;11.95;;;14.20;67.40;13.30;102368.00;;;;4922550;29;20043;-77
2021/05/31 00:51:42;;;;;;;22.92;12.35;;;14.20;69.20;13.30;102370.00;;;;4923641;28;20067;-79
2021/05/31 00:54:08;;;;;;;23.47;12.37;;;14.10;68.30;13.20;102376.00;;;;4915933;29;20418;-77
2021/05/31 00:56:34;;;;;;;21.70;12.75;;;14.10;68.30;13.20;102366.00;;;;4917095;29;20284;-76
2021/05/31 00:59:00;;;;;;;22.03;12.70;;;14.00;67.20;13.20;102367.00;;;;4918753;29;20048;-77
2021/05/31 01:01:26;;;;;;;23.52;13.07;;;14.10;68.80;13.10;102364.00;;;;4922403;28;20505;-75
2021/05/31 01:03:52;;;;;;;21.35;12.48;;;14.00;68.70;13.10;102372.00;;;;4941232;28;20147;-76
2021/05/31 01:06:23;;;;;;;21.23;12.65;;;14.00;69.30;13.10;102361.00;;;;4910791;29;20042;-77
2021/05/31 01:09:12;;;;;;;21.50;12.57;;;13.90;69.70;13.00;102350.00;;;;4914385;29;20037;-78
2021/05/31 01:12:21;;;;;;;27.02;13.48;;;13.90;69.70;13.00;102366.00;;;;4922054;28;20035;-77
2021/05/31 01:14:58;;;;;;;;;;;13.90;71.30;12.90;102360.00;;;;4927627;29;20043;-77
2021/05/31 01:17:48;;;;;;;22.42;13.95;;;13.80;72.10;12.90;102370.00;;;;4919750;28;20349;-78
2021/05/31 01:20:43;;;;;;;23.30;13.35;;;13.80;69.90;12.90;102367.00;;;;4924187;29;20036;-76
2021/05/31 01:23:13;;;;;;;24.30;14.10;;;13.80;71.00;12.90;102358.00;;;;4923059;29;20047;-76
2021/05/31 01:26:08;;;;;;;20.88;13.23;;;13.80;70.10;12.90;102366.00;;;;4928599;29;20297;-76
2021/05/31 01:28:53;;;;;;;28.30;15.10;;;13.70;70.90;12.90;102366.00;;;;4917942;29;20048;-77
2021/05/31 01:31:43;;;;;;;26.80;14.68;;;13.70;71.20;12.80;102359.00;;;;4921371;28;20043;-77
2021/05/31 01:34:12;;;;;;;25.48;14.30;;;13.70;71.60;12.80;102362.00;;;;4930954;28;20044;-77
2021/05/31 01:36:45;;;;;;;23.05;14.85;;;13.70;71.20;12.80;102367.00;;;;4922158;28;20072;-76
2021/05/31 01:39:18;;;;;;;23.38;13.63;;;13.70;71.40;12.80;102356.00;;;;4923023;29;20094;-76
2021/05/31 01:41:45;;;;;;;23.25;14.75;;;13.60;71.70;12.70;102350.00;;;;4922309;29;20071;-76
2021/05/31 01:44:14;;;;;;;23.63;15.43;;;13.60;71.80;12.70;102361.00;;;;4900607;29;20035;-77
2021/05/31 01:46:41;;;;;;;22.92;15.48;;;13.60;71.70;12.70;102355.00;;;;4910858;29;20170;-77
2021/05/31 01:49:09;;;;;;;23.67;15.30;;;13.50;72.10;12.60;102359.00;;;;4927571;28;20653;-77
2021/05/31 01:51:38;;;;;;;26.42;15.45;;;13.50;72.40;12.60;102352.00;;;;4922312;29;20106;-77
2021/05/31 01:54:07;;;;;;;29.73;16.60;;;13.50;71.90;12.60;102352.00;;;;4925260;29;20058;-77
2021/05/31 01:56:35;;;;;;;29.05;16.02;;;13.50;72.40;12.60;102347.00;;;;4922644;29;20064;-77
2021/05/31 01:59:05;;;;;;;23.40;15.60;;;13.40;72.00;12.50;102341.00;;;;4922241;29;20145;-77
2021/05/31 02:01:35;;;;;;;26.15;15.65;;;13.40;71.50;12.50;102342.00;;;;4909681;29;20059;-77
2021/05/31 02:04:04;;;;;;;26.65;16.45;;;13.40;72.90;12.50;102341.00;;;;4924308;28;20398;-78
2021/05/31 02:06:30;;;;;;;26.15;16.55;;;16.90;75.10;12.40;102348.00;;;;4920247;28;20044;-76
2021/05/31 02:08:56;;;;;;;22.23;15.35;;;13.30;73.60;12.40;102344.00;;;;4921110;29;20079;-77
2021/05/31 02:11:40;;;;;;;27.85;16.13;;;13.30;73.50;12.40;102356.00;;;;4922066;28;20048;-78
2021/05/31 02:14:13;;;;;;;30.77;17.45;;;13.30;74.10;12.30;102347.00;;;;4927587;29;20560;-77
2021/05/31 02:17:06;;;;;;;28.73;17.50;;;13.30;73.90;12.30;102358.00;;;;4910166;29;20048;-76
2021/05/31 02:19:34;;;;;;;31.50;16.73;;;13.20;74.70;12.30;102352.00;;;;4902610;29;20040;-77
2021/05/31 02:22:04;;;;;;;32.67;18.23;;;13.20;74.40;12.20;102350.00;;;;4921233;29;20072;-75
2021/05/31 02:24:34;;;;;;;30.33;17.85;;;13.10;75.50;12.20;102356.00;;;;4911863;29;20040;-77
2021/05/31 02:27:02;;;;;;;31.58;17.33;;;13.10;74.30;12.20;102353.00;;;;4904120;29;20387;-78
2021/05/31 02:29:29;;;;;;;35.40;17.15;;;13.10;74.50;12.20;102335.00;;;;4913417;29;20073;-77
2021/05/31 02:31:55;;;;;;;27.65;16.20;;;13.10;75.90;12.20;102340.00;;;;4902943;29;20295;-76
2021/05/31 02:34:21;;;;;;;33.35;18.10;;;13.10;74.90;12.10;102354.00;;;;4921247;29;20032;-77
2021/05/31 02:36:49;;;;;;;28.87;18.03;;;13.00;74.10;12.10;102338.00;;;;4903195;29;20131;-75
2021/05/31 02:39:16;;;;;;;32.65;18.00;;;13.90;75.50;12.10;102346.00;;;;4923638;28;20043;-79
2021/05/31 02:41:42;;;;;;;;;;;13.00;75.50;12.00;102353.00;;;;4918440;29;20138;-78
2021/05/31 02:44:08;;;;;;;30.05;18.25;;;13.00;75.30;12.10;102344.00;;;;4920403;29;19930;-78
2021/05/31 02:46:34;;;;;;;31.88;18.10;;;13.00;75.40;12.10;102351.00;;;;4923045;29;20050;-78
2021/05/31 02:49:00;;;;;;;31.45;18.67;;;13.00;75.60;12.10;102350.00;;;;4906946;29;20421;-78
2021/05/31 02:51:27;;;;;;;31.25;19.17;;;13.00;75.70;12.10;102353.00;;;;4905990;29;20095;-77
2021/05/31 02:53:52;;;;;;;28.42;18.05;;;13.00;75.80;12.10;102359.00;;;;4926254;28;20063;-79
2021/05/31 02:56:18;;;;;;;32.30;18.80;;;13.00;75.50;12.10;102354.00;;;;4901761;29;20072;-79
2021/05/31 02:58:44;;;;;;;35.40;20.15;;;13.00;75.60;12.00;102348.00;;;;4920218;29;20148;-79
2021/05/31 03:01:10;;;;;;;33.35;19.73;;;13.70;76.30;12.00;102341.00;;;;4915091;29;20609;-77
2021/05/31 03:03:36;;;;;;;32.30;19.92;;;12.90;76.20;12.00;102345.00;;;;4922870;28;20031;-79
2021/05/31 03:06:03;;;;;;;34.10;20.10;;;12.90;76.30;12.00;102351.00;;;;4941186;28;20063;-79
2021/05/31 03:08:29;;;;;;;33.03;20.67;;;12.90;76.60;12.00;102345.00;;;;4921807;29;20032;-79
2021/05/31 03:10:55;;;;;;;34.35;18.92;;;13.40;77.20;11.90;102352.00;;;;4924944;29;20302;-79
2021/05/31 03:13:24;;;;;;;34.38;20.85;;;12.80;76.80;11.90;102348.00;;;;4923273;29;20043;-78
2021/05/31 03:15:51;;;;;;;38.10;21.25;;;12.80;77.20;11.90;102353.00;;;;4923158;28;20536;-77
2021/05/31 03:18:18;;;;;;;29.90;18.38;;;12.80;77.20;11.90;102355.00;;;;4923289;29;20042;-79
2021/05/31 03:20:44;;;;;;;34.38;20.98;;;13.80;78.10;11.90;102359.00;;;;4920143;29;20052;-77
2021/05/31 03:23:10;;;;;;;36.45;21.10;;;12.80;77.60;11.90;102354.00;;;;4918871;29;20044;-77
2021/05/31 03:25:36;;;;;;;36.60;21.65;;;12.70;77.90;11.90;102353.00;;;;4917972;29;20067;-78
2021/05/31 03:28:03;;;;;;;39.97;22.45;;;12.80;77.50;11.80;102349.00;;;;4919228;29;20147;-80
2021/05/31 03:30:28;;;;;;;41.20;21.77;;;12.70;77.50;11.80;102348.00;;;;4922403;28;20198;-79
2021/05/31 03:32:56;;;;;;;36.20;21.42;;;12.70;77.90;11.90;102347.00;;;;4925128;29;20583;-77
2021/05/31 03:35:22;;;;;;;39.55;21.63;;;12.70;77.90;11.80;102346.00;;;;4895254;29;20134;-77
2021/05/31 03:37:48;;;;;;;36.08;22.90;;;12.80;78.00;11.80;102347.00;;;;4925163;29;20039;-77
2021/05/31 03:40:19;;;;;;;42.95;23.08;;;12.70;78.10;11.80;102342.00;;;;4923217;28;20609;-78
2021/05/31 03:42:44;;;;;;;35.72;20.45;;;12.70;78.20;11.80;102347.00;;;;4913803;29;20078;-78
2021/05/31 03:45:11;;;;;;;36.47;21.90;;;12.70;78.20;11.80;102345.00;;;;4924969;29;20660;-78
2021/05/31 03:47:38;;;;;;;36.03;21.92;;;12.70;77.90;11.80;102354.00;;;;4926963;29;20039;-77
2021/05/31 03:50:05;;;;;;;44.60;23.40;;;12.70;78.20;11.80;102355.00;;;;4923920;29;20048;-78
2021/05/31 03:52:32;;;;;;;40.45;22.10;;;12.70;79.40;11.80;102348.00;;;;4920588;28;20134;-77
2021/05/31 03:54:58;;;;;;;39.15;23.15;;;12.70;78.90;11.80;102355.00;;;;4927377;28;20059;-79
2021/05/31 03:57:24;;;;;;;40.30;23.25;;;12.60;78.90;11.80;102350.00;;;;4921898;28;20128;-78
2021/05/31 03:59:52;;;;;;;42.50;22.60;;;12.60;78.80;11.70;102353.00;;;;4923714;29;20367;-78
2021/05/31 04:02:18;;;;;;;36.22;22.73;;;12.60;78.70;11.70;102345.00;;;;4925283;29;20047;-78
2021/05/31 04:04:47;;;;;;;36.55;21.88;;;12.60;78.70;11.80;102346.00;;;;4928429;29;20135;-79
2021/05/31 04:12:33;;;;;;;39.55;23.38;;;12.60;78.90;11.70;102350.00;;;;4924589;29;20054;-80
2021/05/31 04:14:58;;;;;;;39.45;23.45;;;12.60;79.30;11.70;102358.00;;;;4928928;29;20052;-80
2021/05/31 04:17:24;;;;;;;38.60;22.30;;;13.80;80.50;11.70;102355.00;;;;4923160;28;20053;-79
2021/05/31 04:19:50;;;;;;;47.35;24.60;;;12.60;79.80;11.70;102351.00;;;;4919896;28;20443;-80
2021/05/31 04:22:16;;;;;;;39.13;23.38;;;12.60;79.50;11.70;102349.00;;;;4913738;28;21439;-79
2021/05/31 04:24:42;;;;;;;39.08;22.05;;;12.60;79.70;11.80;102349.00;;;;4926772;28;20051;-78
2021/05/31 04:27:08;;;;;;;35.58;20.90;;;12.60;79.70;11.80;102348.00;;;;4913151;29;20096;-79
2021/05/31 04:29:34;;;;;;;38.85;20.92;;;12.60;79.60;11.80;102347.00;;;;4925009;28;20073;-79
2021/05/31 04:32:02;;;;;;;37.22;22.42;;;12.60;79.90;11.80;102346.00;;;;4922738;28;20083;-79
2021/05/31 04:34:28;;;;;;;37.53;22.45;;;12.60;79.90;11.90;102344.00;;;;4921935;28;20623;-79
2021/05/31 04:36:54;;;;;;;41.25;23.50;;;12.70;79.90;11.90;102345.00;;;;4926070;28;20619;-80
2021/05/31 04:39:20;;;;;;;37.65;23.58;;;12.70;79.90;12.00;102352.00;;;;4926856;28;20051;-79
2021/05/31 04:41:46;;;;;;;36.47;20.95;;;12.80;79.80;12.10;102343.00;;;;4927638;29;20505;-78
2021/05/31 04:44:15;;;;;;;37.40;22.38;;;12.80;79.70;12.10;102336.00;;;;4921307;29;20059;-79
2021/05/31 04:46:41;;;;;;;40.80;22.02;;;12.80;79.60;12.20;102341.00;;;;4926817;29;20059;-79
2021/05/31 04:49:07;;;;;;;35.97;21.93;;;12.90;81.50;12.30;102330.00;;;;4922250;29;20119;-79
2021/05/31 04:51:33;;;;;;;37.42;22.20;;;13.00;79.80;12.30;102343.00;;;;4924543;28;20745;-79
2021/05/31 04:53:59;;;;;;;33.17;20.70;;;13.10;79.80;12.40;102337.00;;;;4909766;29;20032;-78
2021/05/31 04:56:27;;;;;;;38.33;21.35;;;13.10;79.60;12.50;102333.00;;;;4926768;29;20130;-79
2021/05/31 04:58:53;;;;;;;32.85;20.50;;;13.30;79.60;12.60;102349.00;;;;4924974;28;20036;-79
2021/05/31 05:01:20;;;;;;;32.00;20.15;;;13.30;79.10;12.80;102341.00;;;;4922459;28;20075;-81
2021/05/31 05:03:46;;;;;;;35.05;20.10;;;13.40;79.00;12.80;102350.00;;;;4934080;28;20541;-80
2021/05/31 05:06:15;;;;;;;31.98;19.73;;;13.50;78.90;12.80;102332.00;;;;4929956;28;20150;-80
2021/05/31 05:08:42;;;;;;;34.67;20.23;;;13.50;78.90;12.90;102339.00;;;;4925197;28;20078;-79
2021/05/31 05:11:07;;;;;;;32.28;19.38;;;13.60;78.90;12.90;102345.00;;;;4920251;29;20071;-80
2021/05/31 05:13:33;;;;;;;28.15;19.40;;;13.60;78.60;13.00;102348.00;;;;4939142;28;20758;-79
2021/05/31 05:15:59;;;;;;;32.85;19.33;;;14.60;79.10;13.10;102344.00;;;;4928815;28;20553;-79
2021/05/31 05:18:25;;;;;;;28.05;18.27;;;13.70;78.60;13.30;102346.00;;;;4924216;28;20039;-80
2021/05/31 05:20:54;;;;;;;28.55;18.00;;;13.80;78.10;13.40;102353.00;;;;4908177;29;20025;-79
2021/05/31 05:23:20;;;;;;;28.80;18.58;;;14.70;78.50;13.50;102346.00;;;;4925110;29;20078;-79
2021/05/31 05:25:46;;;;;;;30.30;17.98;;;14.80;78.30;13.70;102346.00;;;;4928158;28;20726;-78
2021/05/31 05:28:15;;;;;;;29.35;17.88;;;14.20;77.70;13.80;102350.00;;;;4926133;29;20070;-80
2021/05/31 05:30:41;;;;;;;30.63;18.17;;;14.30;77.30;13.90;102339.00;;;;4911732;29;20044;-79
2021/05/31 05:33:07;;;;;;;32.13;18.70;;;14.40;77.20;14.00;102345.00;;;;4924511;29;20078;-78
2021/05/31 05:35:37;;;;;;;28.58;17.45;;;14.50;75.60;14.10;102338.00;;;;4920898;28;20083;-80
2021/05/31 05:48:38;;;;;;;24.77;15.23;;;15.10;75.30;14.70;102343.00;;;;4924703;29;20040;-79
2021/05/31 05:51:06;;;;;;;23.30;15.33;;;15.20;75.40;14.80;102339.00;;;;4921027;29;20465;-79
2021/05/31 05:53:34;;;;;;;26.63;16.15;;;15.30;75.10;14.90;102350.00;;;;4925240;28;20131;-78
2021/05/31 05:56:02;;;;;;;23.77;15.93;;;15.40;75.10;15.10;102346.00;;;;4923825;29;20523;-78
2021/05/31 05:58:29;;;;;;;27.38;14.80;;;15.50;74.40;15.20;102345.00;;;;4925480;28;20044;-77
2021/05/31 06:01:00;;;;;;;26.20;16.73;;;15.60;74.30;15.30;102342.00;;;;4924567;28;20079;-76
2021/05/31 06:03:27;;;;;;;20.05;13.88;;;15.70;73.70;15.40;102337.00;;;;4922236;28;20048;-78
2021/05/31 06:05:57;;;;;;;25.52;16.13;;;15.80;73.70;15.50;102343.00;;;;4934454;28;20051;-78
2021/05/31 06:08:23;;;;;;;24.38;15.27;;;15.90;73.70;15.60;102335.00;;;;4911786;29;20052;-78
2021/05/31 06:10:49;;;;;;;25.85;16.55;;;16.00;73.10;15.70;102339.00;;;;4903692;29;20040;-78
2021/05/31 06:13:16;;;;;;;26.27;14.45;;;16.10;73.00;15.80;102343.00;;;;4924284;28;20052;-79
2021/05/31 06:15:42;;;;;;;25.93;16.17;;;16.20;72.80;15.90;102345.00;;;;4930241;29;20060;-77
2021/05/31 06:18:08;;;;;;;24.05;14.65;;;16.30;72.50;16.00;102344.00;;;;4919698;29;20110;-78
2021/05/31 06:20:35;;;;;;;22.67;15.02;;;16.40;72.30;16.10;102347.00;;;;4928141;29;20524;-78
2021/05/31 06:23:08;;;;;;;24.38;15.45;;;16.60;70.90;16.30;102353.00;;;;4923415;28;20036;-77
2021/05/31 06:25:34;;;;;;;26.42;15.20;;;16.60;70.90;16.40;102355.00;;;;4916533;28;20044;-77
2021/05/31 06:28:02;;;;;;;23.92;14.25;;;16.70;71.50;16.50;102352.00;;;;4899871;29;20041;-77
2021/05/31 06:30:29;;;;;;;28.60;14.30;;;16.80;71.30;16.60;102346.00;;;;4897876;29;20431;-79
2021/05/31 06:32:55;;;;;;;25.02;15.25;;;17.00;72.30;16.70;102348.00;;;;4916449;29;20047;-79
2021/05/31 06:35:21;;;;;;;24.27;15.48;;;17.10;71.40;16.80;102345.00;;;;4922783;28;20470;-78
2021/05/31 06:37:48;;;;;;;25.35;15.55;;;17.20;69.20;16.90;102349.00;;;;4923591;29;20040;-78
2021/05/31 06:40:15;;;;;;;26.08;14.88;;;17.20;70.60;17.00;102340.00;;;;4935030;28;20052;-79
2021/05/31 06:42:43;;;;;;;24.50;15.38;;;17.30;70.90;17.10;102346.00;;;;4915323;28;20305;-78
2021/05/31 06:45:16;;;;;;;22.48;13.52;;;17.50;70.90;17.30;102351.00;;;;4923774;29;20497;-77
2021/05/31 06:47:42;;;;;;;21.85;14.65;;;17.50;70.50;17.40;102345.00;;;;4936190;28;20071;-77
2021/05/31 06:50:09;;;;;;;23.98;13.52;;;17.70;70.20;17.50;102349.00;;;;4922700;29;20035;-77
2021/05/31 06:52:35;;;;;;;;;;;17.90;70.30;17.60;102342.00;;;;4927384;28;20107;-78
2021/05/31 06:55:07;;;;;;;17.70;13.10;;;18.00;69.70;17.80;102339.00;;;;4923141;29;20548;-77
2021/05/31 06:57:33;;;;;;;21.10;14.77;;;18.10;69.90;17.90;102344.00;;;;4919556;29;20102;-76
2021/05/31 06:59:59;;;;;;;19.77;13.20;;;18.20;69.30;18.00;102338.00;;;;4923665;29;20115;-78
2021/05/31 07:02:25;;;;;;;24.65;15.25;;;18.30;68.90;18.10;102337.00;;;;4922661;28;20431;-78
2021/05/31 07:04:52;;;;;;;22.17;14.82;;;18.40;68.60;18.20;102340.00;;;;4920254;28;20592;-78
2021/05/31 07:07:20;;;;;;;17.95;13.18;;;18.50;66.90;18.30;102335.00;;;;4919518;28;20111;-78
2021/05/31 07:09:47;;;;;;;19.27;13.52;;;18.60;68.60;18.50;102336.00;;;;4925631;28;20036;-78
2021/05/31 07:12:16;;;;;;;21.27;14.18;;;18.70;68.50;18.50;102338.00;;;;4905820;29;20646;-78
2021/05/31 07:14:45;;;;;;;22.70;14.93;;;18.90;67.10;18.60;102330.00;;;;4918384;28;20192;-78
2021/05/31 07:17:15;;;;;;;24.42;14.57;;;18.90;67.90;18.70;102337.00;;;;4920346;29;20032;-77
2021/05/31 07:19:44;;;;;;;24.08;14.05;;;19.00;67.50;18.80;102339.00;;;;4925128;29;20150;-77
2021/05/31 07:22:20;;;;;;;22.45;12.93;;;19.10;67.40;18.90;102333.00;;;;4925193;28;20048;-76
2021/05/31 07:24:46;;;;;;;19.65;13.52;;;19.20;65.80;19.10;102332.00;;;;4909745;29;20282;-78
2021/05/31 07:27:15;;;;;;;19.42;12.68;;;19.30;66.90;19.20;102329.00;;;;4928407;28;20132;-78
2021/05/31 07:29:41;;;;;;;22.73;14.40;;;19.10;66.70;19.20;102329.00;;;;4929342;28;20048;-77
2021/05/31 07:32:08;;;;;;;25.15;15.15;;;19.50;66.40;19.30;102324.00;;;;4918864;29;20453;-77
2021/05/31 07:34:34;;;;;;;22.05;13.85;;;19.60;65.10;19.40;102328.00;;;;4940796;28;20091;-78
2021/05/31 07:37:00;;;;;;;21.58;14.40;;;19.70;66.60;19.50;102334.00;;;;4922048;29;20044;-78
2021/05/31 07:39:26;;;;;;;21.42;12.55;;;19.80;66.40;19.70;102336.00;;;;4939999;28;20139;-77
2021/05/31 07:41:53;;;;;;;31.33;15.40;;;20.00;64.00;19.70;102332.00;;;;4928156;28;20445;-77
2021/05/31 07:44:19;;;;;;;20.92;12.90;;;20.00;65.00;19.80;102328.00;;;;4926807;29;20609;-77
2021/05/31 07:46:45;;;;;;;18.65;13.57;;;20.00;65.80;19.90;102317.00;;;;4920853;29;20059;-77
2021/05/31 07:49:12;;;;;;;22.50;13.33;;;20.10;65.90;20.00;102319.00;;;;4906896;29;20131;-78
2021/05/31 07:51:43;;;;;;;20.03;12.10;;;20.20;63.90;20.20;102324.00;;;;4902111;29;20048;-78
2021/05/31 07:54:09;;;;;;;20.95;12.57;;;20.30;64.00;20.30;102332.00;;;;4924028;29;20096;-77
2021/05/31 07:56:36;;;;;;;26.40;13.27;;;20.50;64.10;20.40;102319.00;;;;4925948;29;20306;-76
2021/05/31 07:59:02;;;;;;;;;;;20.50;63.20;20.40;102330.00;;;;4928082;29;20031;-77
2021/05/31 08:01:29;;;;;;;23.45;13.15;;;20.60;63.20;20.50;102322.00;;;;4928158;28;19915;-78
2021/05/31 08:03:55;;;;;;;17.35;10.68;;;20.70;63.60;20.70;102327.00;;;;4925280;28;20059;-78
2021/05/31 08:06:21;;;;;;;16.47;12.27;;;20.90;63.20;20.90;102321.00;;;;4919816;29;20482;-78
2021/05/31 08:08:47;;;;;;;15.35;10.80;;;21.00;63.00;21.00;102324.00;;;;4916648;29;20056;-78
2021/05/31 08:11:13;;;;;;;17.98;12.13;;;21.20;63.10;21.20;102319.00;;;;4903908;29;20104;-78
2021/05/31 08:13:40;;;;;;;17.23;10.98;;;21.30;62.20;21.30;102319.00;;;;4905461;28;20162;-79
2021/05/31 08:16:07;;;;;;;15.15;9.43;;;21.40;62.70;21.40;102330.00;;;;4908489;29;20083;-77
2021/05/31 08:18:34;;;;;;;17.50;10.15;;;21.60;61.80;21.50;102323.00;;;;4921628;28;20043;-77
2021/05/31 08:21:01;;;;;;;20.42;11.32;;;21.70;61.20;21.60;102334.00;;;;4921881;29;20048;-77
2021/05/31 08:23:27;;;;;;;;;;;21.80;60.10;21.40;102319.00;;;;4927002;28;20515;-77
2021/05/31 08:25:54;;;;;;;17.85;11.45;;;21.70;58.80;21.60;102313.00;;;;4920440;29;20353;-77
2021/05/31 08:28:23;;;;;;;18.02;11.48;;;21.80;60.40;21.70;102326.00;;;;4914211;29;20048;-76
2021/05/31 08:30:49;;;;;;;17.92;11.60;;;21.90;60.00;21.80;102326.00;;;;4931540;29;20306;-77
2021/05/31 08:33:15;;;;;;;14.35;8.77;;;20.60;57.20;21.80;102319.00;;;;4916883;29;20066;-77
2021/05/31 08:35:46;;;;;;;16.17;9.73;;;22.00;57.50;21.60;102319.00;;;;4936645;28;20650;-76
2021/05/31 08:38:12;;;;;;;15.15;9.18;;;21.90;56.60;21.50;102317.00;;;;4920553;28;20789;-75
2021/05/31 08:40:41;;;;;;;15.38;9.20;;;21.80;57.30;21.40;102318.00;;;;4918577;29;20040;-75
2021/05/31 08:43:07;;;;;;;15.27;9.57;;;21.80;59.00;21.60;102317.00;;;;4922576;29;20040;-76
2021/05/31 08:45:37;;;;;;;18.20;9.87;;;21.80;58.40;21.70;102317.00;;;;4933428;28;20446;-75
2021/05/31 08:48:03;;;;;;;17.05;10.00;;;22.00;58.20;21.90;102311.00;;;;4920587;28;20035;-75
2021/05/31 08:50:33;;;;;;;15.68;9.55;;;22.10;57.50;22.10;102308.00;;;;4918653;29;20405;-76
2021/05/31 08:53:00;;;;;;;15.07;10.57;;;22.20;57.70;22.20;102304.00;;;;4922443;28;20048;-76
2021/05/31 08:55:28;;;;;;;12.35;7.53;;;22.40;57.20;22.20;102307.00;;;;4922932;29;20142;-75
2021/05/31 08:57:57;;;;;;;14.50;8.82;;;22.40;56.60;22.40;102310.00;;;;4908074;29;20051;-75
2021/05/31 09:00:27;;;;;;;14.82;9.15;;;22.60;56.60;22.40;102311.00;;;;4926345;28;20036;-76
2021/05/31 09:03:01;;;;;;;12.55;7.65;;;22.60;55.40;22.30;102299.00;;;;4919944;29;20110;-74
2021/05/31 09:05:41;;;;;;;11.02;7.78;;;22.60;55.50;22.40;102291.00;;;;4916920;29;20047;-75
2021/05/31 09:08:12;;;;;;;18.42;7.80;;;22.70;55.00;22.30;102285.00;;;;4924143;28;20044;-75
2021/05/31 09:10:51;;;;;;;13.30;9.52;;;22.60;54.90;22.20;102295.00;;;;4918400;29;20421;-76
2021/05/31 09:13:39;;;;;;;12.38;7.82;;;22.50;51.60;22.20;102301.00;;;;4919412;28;20051;-75
2021/05/31 09:16:18;;;;;;;13.63;7.72;;;22.60;53.80;22.40;102293.00;;;;4936803;28;20131;-76
2021/05/31 09:18:57;;;;;;;18.95;10.13;;;22.70;53.60;22.50;102301.00;;;;4916120;28;20119;-75
2021/05/31 09:21:42;;;;;;;14.93;8.02;;;22.80;53.10;22.50;102305.00;;;;4922043;28;20382;-75
2021/05/31 09:24:14;;;;;;;13.80;8.65;;;23.20;53.00;22.50;102296.00;;;;4921224;28;20051;-76
2021/05/31 09:26:59;;;;;;;12.02;7.13;;;22.80;53.50;22.60;102288.00;;;;4921245;29;20229;-75
2021/05/31 09:29:28;;;;;;;14.02;9.07;;;22.90;52.30;22.60;102286.00;;;;4921255;28;20039;-75
2021/05/31 09:32:05;;;;;;;14.85;8.90;;;22.90;53.60;22.60;102294.00;;;;4914259;29;20087;-75
2021/05/31 09:34:32;;;;;;;13.13;7.97;;;22.90;53.30;22.60;102284.00;;;;4917853;29;20095;-75
2021/05/31 09:37:01;;;;;;;11.25;6.90;;;22.90;51.00;22.50;102289.00;;;;4924887;28;20058;-74
2021/05/31 09:39:31;;;;;;;11.82;7.63;;;22.90;52.50;22.60;102282.00;;;;4919234;28;20044;-74
2021/05/31 09:42:03;;;;;;;13.02;7.25;;;22.90;52.00;22.50;102287.00;;;;4912507;29;20506;-75
2021/05/31 09:44:29;;;;;;;12.48;7.03;;;22.90;52.10;22.70;102288.00;;;;4902219;29;20060;-76
2021/05/31 09:46:58;;;;;;;10.03;5.80;;;22.90;51.30;22.80;102287.00;;;;4914025;29;20044;-73
2021/05/31 09:49:28;;;;;;;9.93;7.10;;;23.10;51.40;23.00;102282.00;;;;4913393;29;20058;-74
2021/05/31 09:51:59;;;;;;;10.93;6.80;;;23.30;51.10;22.90;102285.00;;;;4899823;29;20547;-76
2021/05/31 09:54:34;;;;;;;13.13;7.57;;;23.30;48.60;22.90;102280.00;;;;4922152;29;20158;-75
2021/05/31 09:57:23;;;;;;;11.65;6.80;;;23.20;50.50;22.90;102277.00;;;;4908342;29;20063;-73
2021/05/31 09:59:58;;;;;;;13.25;7.82;;;23.30;49.90;23.00;102279.00;;;;4915358;28;20147;-75
2021/05/31 10:09:57;;;;;;;14.18;8.23;;;23.00;49.20;22.70;102272.00;;;;4906594;29;20025;-74
2021/05/31 10:12:25;;;;;;;15.65;9.23;;;23.10;51.80;22.80;102263.00;;;;4929597;28;20046;-74
2021/05/31 10:14:52;;;;;;;13.63;7.38;;;23.20;51.00;22.70;102254.00;;;;4918960;28;20537;-73
2021/05/31 10:17:23;;;;;;;12.55;8.73;;;23.20;51.00;22.90;102267.00;;;;4904298;29;20413;-74
2021/05/31 10:19:49;;;;;;;10.73;8.07;;;23.30;51.10;23.00;102267.00;;;;4922764;29;20040;-74
2021/05/31 10:22:17;;;;;;;17.00;9.65;;;23.40;48.20;22.90;102257.00;;;;4927847;28;20059;-75
2021/05/31 10:24:45;;;;;;;14.95;9.48;;;23.30;50.30;22.70;102259.00;;;;4935065;28;20036;-73
2021/05/31 10:27:15;;;;;;;14.13;8.93;;;23.20;50.10;22.60;102254.00;;;;4916234;29;20051;-73
2021/05/31 10:29:44;;;;;;;14.73;8.95;;;23.20;50.00;22.70;102263.00;;;;4923714;28;20055;-73
2021/05/31 10:32:14;;;;;;;13.60;9.27;;;23.10;50.90;22.80;102261.00;;;;4923695;29;20032;-73
2021/05/31 10:34:52;;;;;;;14.30;9.88;;;23.10;50.20;23.00;102253.00;;;;4918409;29;20188;-73
2021/05/31 10:37:28;;;;;;;15.15;9.07;;;23.30;49.90;23.10;102259.00;;;;4915427;29;20444;-73
2021/05/31 10:40:09;;;;;;;15.25;9.95;;;23.40;49.40;23.10;102258.00;;;;4916920;29;20655;-73
2021/05/31 10:42:47;;;;;;;14.77;9.45;;;23.50;49.70;23.30;102248.00;;;;4915466;29;20042;-72
2021/05/31 10:45:23;;;;;;;15.20;9.43;;;23.60;50.00;23.40;102242.00;;;;4915745;29;20040;-73
2021/05/31 10:48:16;;;;;;;15.43;10.52;;;23.70;50.20;23.50;102240.00;;;;4915714;29;20449;-73
2021/05/31 10:50:58;;;;;;;15.70;9.82;;;23.80;50.10;23.60;102237.00;;;;4893827;29;20100;-73
2021/05/31 10:53:33;;;;;;;18.40;10.88;;;23.90;50.00;23.50;102239.00;;;;4919605;28;20175;-73
2021/05/31 10:56:25;;;;;;;14.27;11.07;;;23.90;49.50;23.50;102229.00;;;;4924320;28;20087;-74
2021/05/31 10:58:55;;;;;;;14.98;9.27;;;23.90;49.80;23.70;102235.00;;;;4919261;29;20056;-73
2021/05/31 11:01:28;;;;;;;11.02;8.30;;;24.00;48.60;23.90;102232.00;;;;4929063;28;20215;-74
2021/05/31 11:04:20;;;;;;;14.40;9.88;;;24.20;48.80;24.10;102229.00;;;;4926236;29;20060;-72
2021/05/31 11:06:49;;;;;;;19.45;9.95;;;24.40;46.30;24.10;102232.00;;;;4902734;29;20052;-73
2021/05/31 11:09:23;;;;;;;16.25;10.98;;;24.40;48.90;24.20;102232.00;;;;4918635;29;20040;-74